createdAt,value
2018-11-14T00:02:23.281Z,101124.30
2018-11-14T00:04:49.432Z,101121.30
2018-11-14T00:07:15.962Z,101128.53
2018-11-14T00:09:45.006Z,101125.57
2018-11-14T00:12:11.077Z,101130.64
2018-11-14T00:14:37.181Z,101122.17
2018-11-14T00:17:03.305Z,101127.67
2018-11-14T00:19:29.459Z,101123.02
2018-11-14T00:21:55.732Z,101128.13
2018-11-14T00:24:21.985Z,101128.12
2018-11-14T00:26:48.745Z,101137.45
2018-11-14T00:29:14.817Z,101139.59
2018-11-14T00:31:41.484Z,101136.18
2018-11-14T00:34:07.622Z,101151.06
2018-11-14T00:36:33.796Z,101144.69
2018-11-14T00:38:59.939Z,101148.10
2018-11-14T00:41:26.063Z,101148.92
2018-11-14T00:43:53.006Z,101144.69
2018-11-14T00:46:19.102Z,101147.24
2018-11-14T00:48:45.858Z,101142.97
2018-11-14T00:51:11.997Z,101154.44
2018-11-14T00:53:38.129Z,101157.02
2018-11-14T00:56:04.284Z,101163.81
2018-11-14T00:58:30.388Z,101158.30
2018-11-14T01:00:57.274Z,101163.81
2018-11-14T01:03:23.321Z,101165.91
2018-11-14T01:05:50.339Z,101162.53
2018-11-14T01:08:16.497Z,101167.63
2018-11-14T01:10:42.734Z,101165.09
2018-11-14T01:13:08.890Z,101166.36
2018-11-14T01:15:34.975Z,101162.53
2018-11-14T01:18:01.159Z,101158.30
2018-11-14T01:20:27.258Z,101157.44
2018-11-14T01:22:53.291Z,101160.40
2018-11-14T01:25:19.472Z,101155.75
2018-11-14T01:27:46.330Z,101151.48
2018-11-14T01:30:12.351Z,101154.89
2018-11-14T01:32:38.502Z,101157.44
2018-11-14T01:35:04.550Z,101159.54
2018-11-14T01:37:31.022Z,101157.41
2018-11-14T01:39:57.154Z,101159.13
2018-11-14T01:42:23.223Z,101151.89
2018-11-14T01:44:49.341Z,101156.16
2018-11-14T01:47:16.286Z,101159.12
2018-11-14T01:49:42.396Z,101164.22
2018-11-14T01:52:08.592Z,101155.30
2018-11-14T01:54:35.563Z,101162.09
2018-11-14T01:57:02.974Z,101161.67
2018-11-14T01:59:29.930Z,101166.32
2018-11-14T02:01:56.093Z,101166.32
2018-11-14T02:04:22.239Z,101170.14
2018-11-14T02:06:48.486Z,101168.87
2018-11-14T02:09:15.607Z,101171.00
2018-11-14T02:11:41.718Z,101174.42
2018-11-14T02:14:07.953Z,101170.59
2018-11-14T02:19:06.425Z,101176.95
2018-11-14T02:21:35.461Z,101168.04
2018-11-14T02:24:01.497Z,101172.69
2018-11-14T02:26:27.587Z,101175.23
2018-11-14T02:28:54.488Z,101177.38
2018-11-14T02:31:20.648Z,101171.87
2018-11-14T02:33:46.787Z,101172.69
2018-11-14T02:36:12.868Z,101178.23
2018-11-14T02:38:38.981Z,101182.06
2018-11-14T02:41:05.370Z,101179.92
2018-11-14T02:43:33.635Z,101185.87
2018-11-14T02:45:59.751Z,101174.37
2018-11-14T02:48:25.934Z,101182.87
2018-11-14T02:50:52.056Z,101177.77
2018-11-14T02:53:18.852Z,101183.73
2018-11-14T02:55:44.936Z,101182.87
2018-11-14T02:58:11.883Z,101187.56
2018-11-14T03:00:38.654Z,101186.28
2018-11-14T03:03:04.989Z,101177.78
2018-11-14T03:05:32.230Z,101182.06
2018-11-14T03:07:58.307Z,101184.60
2018-11-14T03:10:24.431Z,101191.80
2018-11-14T03:12:50.556Z,101190.52
2018-11-14T03:15:16.719Z,101195.61
2018-11-14T03:17:44.099Z,101195.63
2018-11-14T03:20:10.183Z,101194.80
2018-11-14T03:22:36.332Z,101199.05
2018-11-14T03:25:02.522Z,101199.91
2018-11-14T03:27:29.378Z,101203.72
2018-11-14T03:29:55.505Z,101203.72
2018-11-14T03:32:21.609Z,101213.92
2018-11-14T03:34:47.791Z,101219.84
2018-11-14T03:37:14.396Z,101212.20
2018-11-14T03:39:40.571Z,101219.02
2018-11-14T03:42:06.736Z,101213.52
2018-11-14T03:44:32.899Z,101210.52
2018-11-14T03:46:59.240Z,101210.09
2018-11-14T03:49:25.367Z,101207.14
2018-11-14T03:51:51.547Z,101201.17
2018-11-14T03:54:17.635Z,101200.73
2018-11-14T03:56:43.732Z,101202.86
2018-11-14T03:59:09.891Z,101201.58
2018-11-14T04:01:35.978Z,101196.49
2018-11-14T04:04:02.106Z,101192.67
2018-11-14T04:06:28.173Z,101193.94
2018-11-14T04:08:54.348Z,101196.48
2018-11-14T04:11:21.380Z,101196.48
2018-11-14T04:29:30.249Z,101185.88
2018-11-14T04:31:56.914Z,101189.27
2018-11-14T04:34:22.914Z,101186.30
2018-11-14T04:36:49.072Z,101182.89
2018-11-14T04:39:15.220Z,101181.20
2018-11-14T04:41:41.278Z,101182.92
2018-11-14T04:44:07.331Z,101183.75
2018-11-14T04:46:33.334Z,101176.97
2018-11-14T04:48:59.319Z,101180.80
2018-11-14T04:51:25.318Z,101176.97
2018-11-14T04:53:53.082Z,101179.10
2018-11-14T04:56:19.117Z,101181.65
2018-11-14T04:58:45.240Z,101177.38
2018-11-14T05:01:11.335Z,101183.75
2018-11-14T05:03:37.411Z,101179.52
2018-11-14T05:06:03.407Z,101175.24
2018-11-14T05:08:29.469Z,101179.52
2018-11-14T05:13:27.888Z,101182.89
2018-11-14T05:15:53.934Z,101177.38
2018-11-14T05:18:19.988Z,101182.92
2018-11-14T05:20:46.075Z,101177.38
2018-11-14T05:23:12.101Z,101174.42
2018-11-14T05:25:38.083Z,101182.06
2018-11-14T05:28:05.147Z,101183.76
2018-11-14T05:30:31.227Z,101178.66
2018-11-14T05:32:57.274Z,101185.02
2018-11-14T05:35:25.582Z,101184.16
2018-11-14T05:37:54.664Z,101184.61
2018-11-14T05:40:23.537Z,101191.40
2018-11-14T05:42:49.826Z,101192.25
2018-11-14T05:45:15.992Z,101198.63
2018-11-14T05:47:42.490Z,101191.39
2018-11-14T05:50:08.706Z,101188.84
2018-11-14T05:52:34.885Z,101189.25
2018-11-14T05:55:02.839Z,101185.89
2018-11-14T05:57:29.065Z,101179.52
2018-11-14T05:59:55.119Z,101185.44
2018-11-14T06:02:23.991Z,101177.83
2018-11-14T06:04:50.112Z,101185.47
2018-11-14T06:07:16.273Z,101185.02
2018-11-14T06:09:42.710Z,101185.02
2018-11-14T06:12:08.806Z,101181.20
2018-11-14T06:14:35.490Z,101179.51
2018-11-14T06:17:02.484Z,101184.61
2018-11-14T06:43:47.393Z,101207.16
2018-11-14T06:46:13.606Z,101204.19
2018-11-14T06:48:40.498Z,101204.19
2018-11-14T06:51:07.562Z,101208.42
2018-11-14T06:53:34.644Z,101209.28
2018-11-14T07:01:08.958Z,101210.09
2018-11-14T07:03:35.769Z,101210.52
2018-11-14T07:06:02.525Z,101210.97
2018-11-14T07:10:59.862Z,101222.84
2018-11-14T07:13:26.072Z,101225.39
2018-11-14T07:15:52.970Z,101234.33
2018-11-14T07:20:59.652Z,101228.81
2018-11-14T07:23:25.822Z,101227.94
2018-11-14T07:25:51.865Z,101223.27
2018-11-14T07:28:18.053Z,101223.72
2018-11-14T07:30:44.132Z,101229.69
2018-11-14T07:33:10.180Z,101230.55
2018-11-14T07:35:36.196Z,101225.90
2018-11-14T07:40:34.646Z,101228.00
2018-11-14T07:43:00.715Z,101230.55
2018-11-14T07:45:27.448Z,101226.28
2018-11-14T07:47:53.559Z,101228.41
2018-11-14T07:50:19.639Z,101234.38
2018-11-14T07:52:45.703Z,101232.27
2018-11-14T07:55:12.953Z,101225.90
2018-11-14T07:57:39.853Z,101230.58
2018-11-14T08:00:08.605Z,101228.03
2018-11-14T08:02:35.580Z,101233.55
2018-11-14T08:05:02.096Z,101231.86
2018-11-14T08:07:28.232Z,101234.00
2018-11-14T08:09:54.308Z,101242.51
2018-11-14T08:12:20.410Z,101239.96
2018-11-14T08:14:46.509Z,101237.41
2018-11-14T08:17:13.225Z,101236.55
2018-11-14T08:19:39.353Z,101239.54
2018-11-14T08:22:05.359Z,101240.37
2018-11-14T08:24:31.422Z,101234.44
2018-11-14T08:26:57.530Z,101241.64
2018-11-14T08:29:23.678Z,101242.51
2018-11-14T08:31:50.270Z,101242.51
2018-11-14T08:34:16.387Z,101248.02
2018-11-14T08:36:42.451Z,101247.60
2018-11-14T08:39:08.638Z,101256.11
2018-11-14T08:41:34.690Z,101251.86
2018-11-14T08:44:00.804Z,101263.78
2018-11-14T08:46:27.974Z,101265.05
2018-11-14T08:48:54.361Z,101268.45
2018-11-14T08:51:22.272Z,101262.06
2018-11-14T08:53:50.087Z,101266.75
2018-11-14T08:56:16.581Z,101265.88
2018-11-14T08:58:43.272Z,101271.41
2018-11-14T09:01:10.232Z,101276.97
2018-11-14T09:03:36.314Z,101282.06
2018-11-14T09:06:03.380Z,101285.88
2018-11-14T09:08:29.435Z,101282.04
2018-11-14T09:10:55.557Z,101288.03
2018-11-14T09:13:21.704Z,101280.36
2018-11-14T09:15:47.826Z,101284.18
2018-11-14T09:18:14.065Z,101281.23
2018-11-14T09:20:40.025Z,101286.72
2018-11-14T09:23:06.083Z,101286.72
2018-11-14T09:25:32.132Z,101286.75
2018-11-14T09:27:58.241Z,101282.07
2018-11-14T09:30:24.357Z,101284.62
2018-11-14T09:32:50.415Z,101282.47
2018-11-14T09:35:16.563Z,101280.75
2018-11-14T09:37:42.689Z,101277.34
2018-11-14T09:40:08.801Z,101284.16
2018-11-14T09:42:34.886Z,101277.33
2018-11-14T09:45:00.984Z,101280.74
2018-11-14T09:49:59.733Z,101302.48
2018-11-14T09:52:26.105Z,101295.22
2018-11-14T09:54:52.146Z,101288.81
2018-11-14T09:57:18.234Z,101283.70
2018-11-14T09:59:44.291Z,101294.83
2018-11-14T10:02:10.339Z,101300.78
2018-11-14T10:04:37.191Z,101294.37
2018-11-14T10:07:03.251Z,101288.39
2018-11-14T10:09:29.382Z,101286.28
2018-11-14T10:11:55.504Z,101286.28
2018-11-14T10:14:22.634Z,101281.98
2018-11-14T10:16:49.385Z,101282.01
2018-11-14T10:19:15.427Z,101277.34
2018-11-14T10:21:41.544Z,101277.34
2018-11-14T10:24:08.572Z,101279.45
2018-11-14T10:26:34.710Z,101281.56
2018-11-14T10:29:00.813Z,101271.37
2018-11-14T10:31:26.993Z,101272.66
2018-11-14T10:33:53.067Z,101262.84
2018-11-14T10:36:19.909Z,101267.53
2018-11-14T10:38:46.057Z,101267.53
2018-11-14T10:41:12.124Z,101262.41
2018-11-14T10:43:38.882Z,101266.66
2018-11-14T10:46:05.284Z,101257.71
2018-11-14T10:48:31.412Z,101257.70
2018-11-14T10:50:57.489Z,101244.94
2018-11-14T10:53:23.528Z,101246.20
2018-11-14T10:55:49.604Z,101238.95
2018-11-14T10:58:16.410Z,101227.86
2018-11-14T11:00:42.524Z,101228.72
2018-11-14T11:03:08.525Z,101240.27
2018-11-14T11:05:34.661Z,101234.30
2018-11-14T11:08:00.839Z,101231.72
2018-11-14T11:10:26.915Z,101237.27
2018-11-14T11:12:52.952Z,101235.14
2018-11-14T11:15:19.040Z,101240.68
2018-11-14T11:17:45.105Z,101241.07
2018-11-14T11:20:11.212Z,101251.70
2018-11-14T11:22:37.623Z,101241.47
2018-11-14T11:25:04.176Z,101241.47
2018-11-14T11:27:30.943Z,101243.60
2018-11-14T11:29:57.908Z,101240.63
2018-11-14T11:32:23.981Z,101239.75
2018-11-14T11:34:50.110Z,101243.19
2018-11-14T11:37:16.166Z,101244.48
2018-11-14T11:39:42.269Z,101237.63
2018-11-14T11:42:08.829Z,101243.17
2018-11-14T11:44:34.957Z,101238.90
2018-11-14T11:47:01.059Z,101232.08
2018-11-14T11:49:27.112Z,101229.95
2018-11-14T11:51:54.168Z,101226.10
2018-11-14T11:54:23.580Z,101218.45
2018-11-14T11:56:49.594Z,101220.12
2018-11-14T11:59:15.683Z,101223.55
2018-11-14T12:01:41.720Z,101224.00
2018-11-14T12:04:07.758Z,101220.20
2018-11-14T12:06:34.663Z,101217.64
2018-11-14T12:09:01.225Z,101215.90
2018-11-14T12:11:27.275Z,101217.17
2018-11-14T12:13:53.432Z,101210.80
2018-11-14T12:16:19.504Z,101215.88
2018-11-14T12:18:45.561Z,101216.30
2018-11-14T12:21:11.546Z,101209.93
2018-11-14T12:23:37.647Z,101209.91
2018-11-14T12:26:03.664Z,101204.78
2018-11-14T12:28:29.752Z,101202.61
2018-11-14T12:30:56.044Z,101206.03
2018-11-14T12:33:21.974Z,101204.39
2018-11-14T12:35:49.430Z,101202.66
2018-11-14T12:38:15.481Z,101203.09
2018-11-14T12:40:42.260Z,101203.08
2018-11-14T12:43:08.289Z,101209.44
2018-11-14T12:45:34.641Z,101207.31
2018-11-14T12:48:01.138Z,101209.44
2018-11-14T12:50:27.142Z,101202.63
2018-11-14T12:52:53.316Z,101208.56
2018-11-14T12:55:19.368Z,101209.46
2018-11-14T12:57:45.493Z,101206.45
2018-11-14T13:00:14.412Z,101210.68
2018-11-14T13:02:40.479Z,101208.53
2018-11-14T13:05:06.511Z,101212.41
2018-11-14T13:07:32.589Z,101200.91
2018-11-14T13:10:00.011Z,101203.89
2018-11-14T13:12:26.770Z,101208.98
2018-11-14T13:14:52.836Z,101208.12
2018-11-14T13:17:18.940Z,101202.22
2018-11-14T13:19:44.975Z,101202.22
2018-11-14T13:22:11.761Z,101199.22
2018-11-14T13:24:37.774Z,101199.63
2018-11-14T13:27:03.848Z,101191.53
2018-11-14T13:29:29.981Z,101191.53
2018-11-14T13:31:56.046Z,101191.95
2018-11-14T13:34:22.777Z,101187.30
2018-11-14T13:36:50.020Z,101177.48
2018-11-14T13:39:16.477Z,101183.04
2018-11-14T13:41:42.513Z,101179.60
2018-11-14T13:44:08.785Z,101179.22
2018-11-14T13:46:35.721Z,101174.95
2018-11-14T13:51:34.611Z,101165.17
2018-11-14T13:54:00.711Z,101168.63
2018-11-14T13:56:26.781Z,101167.38
2018-11-14T13:58:52.950Z,101167.36
2018-11-14T14:01:20.506Z,101161.80
2018-11-14T14:03:46.633Z,101160.92
2018-11-14T14:06:12.745Z,101163.96
2018-11-14T14:08:38.894Z,101157.58
2018-11-14T14:11:05.305Z,101163.97
2018-11-14T14:13:31.493Z,101156.77
2018-11-14T14:15:57.609Z,101161.08
2018-11-14T14:18:23.947Z,101162.36
2018-11-14T14:20:50.054Z,101162.72
2018-11-14T14:23:16.218Z,101161.44
2018-11-14T14:25:43.471Z,101156.32
2018-11-14T14:28:09.617Z,101157.19
2018-11-14T14:30:35.641Z,101152.52
2018-11-14T14:33:01.751Z,101154.70
2018-11-14T14:35:27.787Z,101161.09
2018-11-14T14:37:54.604Z,101155.97
2018-11-14T14:40:20.666Z,101154.28
2018-11-14T14:42:47.339Z,101162.34
2018-11-14T15:58:20.002Z,101195.20
2018-11-14T16:00:47.039Z,101190.11
2018-11-14T16:03:13.125Z,101193.07
2018-11-14T16:05:39.251Z,101191.34
2018-11-14T16:08:05.318Z,101192.19
2018-11-14T16:10:32.901Z,101198.15
2018-11-14T16:13:00.696Z,101193.00
2018-11-14T16:15:26.750Z,101184.52
2018-11-14T16:17:52.899Z,101189.58
2018-11-14T16:20:19.073Z,101189.62
2018-11-14T16:22:45.143Z,101187.47
2018-11-14T16:25:11.349Z,101189.56
2018-11-14T16:27:37.381Z,101184.03
2018-11-14T16:30:03.505Z,101188.28
2018-11-14T16:32:36.422Z,101184.02
2018-11-14T16:35:02.615Z,101189.52
2018-11-14T16:37:32.984Z,101183.92
2018-11-14T16:39:59.862Z,101191.54
2018-11-14T16:42:26.870Z,101194.49
2018-11-14T16:44:53.608Z,101194.45
2018-11-14T16:47:19.718Z,101193.52
2018-11-14T16:49:49.364Z,101187.89
2018-11-14T16:52:16.684Z,101192.87
2018-11-14T16:54:44.516Z,101196.27
2018-11-14T16:57:10.629Z,101182.39
2018-11-14T16:59:36.768Z,101185.75
2018-11-14T17:02:06.982Z,101190.44
2018-11-14T17:04:33.117Z,101181.61
2018-11-14T17:07:00.497Z,101176.59
2018-11-14T17:09:27.463Z,101180.02
2018-11-14T17:11:54.237Z,101174.88
2018-11-14T17:14:21.400Z,101179.05
2018-11-14T17:16:47.461Z,101181.53
2018-11-14T17:19:13.708Z,101179.06
2018-11-14T17:21:41.249Z,101180.69
2018-11-14T17:24:07.321Z,101184.93
2018-11-14T17:26:34.555Z,101186.66
2018-11-14T17:29:00.663Z,101182.48
2018-11-14T17:31:32.209Z,101183.36
2018-11-14T17:33:58.309Z,101175.73
2018-11-14T17:36:24.495Z,101182.47
2018-11-14T17:38:51.841Z,101190.05
2018-11-14T17:41:25.045Z,101196.30
2018-11-14T17:43:51.198Z,101185.19
2018-11-14T17:46:18.792Z,101185.63
2018-11-14T17:48:44.962Z,101193.25
2018-11-14T17:51:14.408Z,101190.75
2018-11-14T17:53:41.328Z,101187.31
2018-11-14T17:56:07.377Z,101186.06
2018-11-14T17:58:33.421Z,101184.80
2018-11-14T18:00:59.493Z,101190.32
2018-11-14T18:03:25.838Z,101188.92
2018-11-14T18:05:52.017Z,101189.56
2018-11-14T18:08:19.275Z,101191.23
2018-11-14T18:10:45.326Z,101199.70
2018-11-14T18:13:14.346Z,101196.69
2018-11-14T18:15:40.319Z,101199.67
2018-11-14T18:18:06.770Z,101194.10
2018-11-14T18:20:32.805Z,101194.08
2018-11-14T18:22:59.781Z,101188.23
2018-11-14T18:25:26.479Z,101191.36
2018-11-14T18:27:52.584Z,101184.39
2018-11-14T18:30:19.272Z,101182.91
2018-11-14T18:32:45.312Z,101176.23
2018-11-14T18:35:11.526Z,101177.19
2018-11-14T18:37:37.624Z,101177.89
2018-11-14T18:40:05.461Z,101176.01
2018-11-14T18:42:35.337Z,101182.77
2018-11-14T18:45:01.400Z,101186.84
2018-11-14T18:47:29.744Z,101182.52
2018-11-14T18:49:56.676Z,101188.09
2018-11-14T18:52:22.860Z,101191.27
2018-11-14T18:54:49.363Z,101192.86
2018-11-14T18:57:15.599Z,101188.66
2018-11-14T18:59:41.646Z,101198.55
2018-11-14T19:02:10.045Z,101190.84
2018-11-14T19:04:37.471Z,101194.13
2018-11-14T19:07:03.639Z,101200.09
2018-11-14T19:09:29.724Z,101205.69
2018-11-14T19:11:56.323Z,101207.52
2018-11-14T19:14:22.361Z,101214.41
2018-11-14T19:16:50.467Z,101214.94
2018-11-14T19:19:19.100Z,101223.84
2018-11-14T19:21:45.173Z,101232.36
2018-11-14T19:27:15.165Z,101228.59
2018-11-14T19:34:44.769Z,101234.34
2018-11-14T19:37:10.971Z,101232.59
2018-11-14T19:39:40.803Z,101236.72
2018-11-14T19:42:13.528Z,101232.02
2018-11-14T19:44:44.916Z,101230.67
2018-11-14T19:49:45.713Z,101235.41
2018-11-14T19:52:12.331Z,101222.52
2018-11-14T19:54:38.420Z,101222.28
2018-11-14T19:57:04.844Z,101229.53
2018-11-14T19:59:30.871Z,101214.83
2018-11-14T20:01:59.060Z,101212.79
2018-11-14T20:04:25.046Z,101205.81
2018-11-14T20:06:51.156Z,101203.73
2018-11-14T20:09:17.282Z,101210.00
2018-11-14T20:11:43.400Z,101221.27
2018-11-14T20:14:11.301Z,101222.29
2018-11-14T20:16:37.915Z,101221.83
2018-11-14T20:19:04.961Z,101220.19
2018-11-14T20:21:34.889Z,101217.33
2018-11-14T20:24:01.111Z,101207.20
2018-11-14T20:26:27.257Z,101199.27
2018-11-14T20:28:53.366Z,101199.31
2018-11-14T20:31:19.579Z,101201.70
2018-11-14T20:33:47.277Z,101194.77
2018-11-14T20:36:17.246Z,101199.36
2018-11-14T20:38:43.456Z,101196.30
2018-11-14T20:41:09.958Z,101187.02
2018-11-14T20:43:36.164Z,101184.46
2018-11-14T20:46:02.365Z,101184.61
2018-11-14T20:48:31.204Z,101181.38
2018-11-14T20:50:59.371Z,101182.37
2018-11-14T20:53:25.480Z,101182.20
2018-11-14T20:55:55.684Z,101188.95
2018-11-14T20:58:21.909Z,101187.86
2018-11-14T21:00:47.956Z,101186.08
2018-11-14T21:03:14.218Z,101171.56
2018-11-14T21:05:40.344Z,101173.26
2018-11-14T21:08:06.402Z,101174.25
2018-11-14T21:10:32.427Z,101178.05
2018-11-14T21:12:59.590Z,101176.30
2018-11-14T21:15:26.335Z,101180.94
2018-11-14T21:17:52.560Z,101187.13
2018-11-14T21:20:18.847Z,101192.14
2018-11-14T21:22:48.072Z,101188.67
2018-11-14T21:25:14.872Z,101182.82
2018-11-14T21:27:44.789Z,101186.22
2018-11-14T21:30:14.748Z,101192.92
2018-11-14T21:32:41.062Z,101191.00
2018-11-14T21:35:10.102Z,101190.87
2018-11-14T21:37:36.237Z,101086.40
2018-11-14T21:40:02.683Z,101190.72
2018-11-14T21:47:35.068Z,101189.41
2018-11-14T21:50:02.217Z,101190.95
2018-11-14T21:52:28.362Z,101190.61
2018-11-14T21:54:54.808Z,101196.30
2018-11-14T21:57:23.461Z,101194.58
2018-11-14T21:59:49.689Z,101187.10
2018-11-14T22:02:16.636Z,101190.58
2018-11-14T22:07:15.964Z,101192.66
2018-11-14T22:09:42.043Z,101206.78
2018-11-14T22:12:08.151Z,101200.50
2018-11-14T22:14:34.249Z,101197.91
2018-11-14T22:17:00.310Z,101200.13
2018-11-14T22:19:26.445Z,101196.30
2018-11-14T22:21:52.453Z,101203.30
2018-11-14T22:24:18.714Z,101204.39
2018-11-14T22:26:44.772Z,101201.05
2018-11-14T22:29:12.642Z,101204.62
2018-11-14T22:31:38.733Z,101209.05
2018-11-14T22:34:04.965Z,101205.55
2018-11-14T22:36:31.020Z,101200.32
2018-11-14T22:38:57.046Z,101200.19
2018-11-14T22:41:24.310Z,101196.02
2018-11-14T22:43:50.447Z,101196.64
2018-11-14T22:46:16.576Z,101192.70
2018-11-14T22:48:42.779Z,101198.94
2018-11-14T22:51:08.908Z,101195.87
2018-11-14T22:53:37.905Z,101198.38
2018-11-14T22:56:05.762Z,101187.08
2018-11-14T22:58:33.545Z,101195.31
2018-11-14T23:01:00.960Z,101194.11
2018-11-14T23:03:27.604Z,101193.94
2018-11-14T23:05:55.121Z,101193.75
2018-11-14T23:08:21.201Z,101187.30
2018-11-14T23:10:47.442Z,101192.19
2018-11-14T23:13:13.577Z,101191.76
2018-11-14T23:15:41.323Z,101187.32
2018-11-14T23:18:07.360Z,101183.38
2018-11-14T23:20:34.721Z,101180.05
2018-11-14T23:23:02.634Z,101177.88
2018-11-14T23:25:29.328Z,101176.20
2018-11-14T23:27:56.246Z,101177.72
2018-11-14T23:30:23.338Z,101170.61
2018-11-14T23:32:49.382Z,101178.20
2018-11-14T23:35:15.578Z,101179.64
2018-11-14T23:37:41.750Z,101172.86
2018-11-14T23:40:08.006Z,101175.36
2018-11-14T23:42:35.076Z,101178.45
2018-11-14T23:45:01.148Z,101172.74
2018-11-14T23:47:27.903Z,101173.05
2018-11-14T23:49:54.085Z,101170.00
2018-11-14T23:52:20.808Z,101165.52
2018-11-14T23:54:47.607Z,101170.27
2018-11-14T23:57:14.605Z,101166.02
2018-11-14T23:59:40.776Z,101171.75
